Aviation Digital Data Service (ADDS)

Output produced by METARs form (2342 UTC 23 May 2022)
found at http://www.aviationweather.gov/metar/data/
 
FQBR 232300Z 29004KT CAVOK 17/16 Q1014
TAF FQBR 232200Z 2400/2506 23008KT 9999 FEW020 TX25/2413Z TN18/2403Z 
     PROB30 
     TEMPO 2401/2405 5000 BR FEW012 
     BECMG 2412/2414 10010KT FEW025 
     BECMG 2418/2420 23008KT 
     BECMG 2500/2502 30006KT 
     BECMG 2503/2505 16010KT
       
FQCH 232300Z /////KT CAVOK 13/12 Q1020
TAF FQCH 232200Z 2400/2500 28008KT CAVOK TX24/2413Z TN13/2403Z 
     PROB30 
     TEMPO 2401/2406 5000 BR FEW010 
     BECMG 2408/2410 09010KT 9999 FEW020 
     BECMG 2419/2421 28006KT 
       
FQIN 231900Z 00000KT CAVOK 18/17 Q1014
TAF FQIN 232200Z 2400/2500 30008KT 9999 SCT020 TX25/2413Z TN19/2403Z 
     BECMG 2410/2412 19010KT FEW025 
     BECMG 2419/2421 VRB04KT
       
FQLC 232300Z 08004KT 9999 FEW025 17/16 Q1020
TAF FQLC 232200Z 2400/2500 09008KT 9999 FEW018 TX25/2413Z TN11/2403Z 
     PROB30 
     TEMPO 2401/2406 5000 BR FEW010 
     BECMG 2408/2410 12010KT SCT018 
     BECMG 2419/2421 23008KT FEW020
       
FQMA 232300Z 22005KT 9999 SCT020 18/17 Q1014 NOSIG
TAF FQMA 232200Z 2400/2506 26008KT 9999 SCT020 TX27/2413Z TN17/2403Z 
     PROB30 
     TEMPO 2403/2405 5000 -RADZ SCT015 
     BECMG 2410/2412 10010KT FEW025 
     BECMG 2418/2420 08010KT 
     BECMG 2500/2502 32006KT 
     BECMG 2503/2505 06010KT
       
TAF FQNC 232200Z 2400/2506 22008KT 9999 FEW025 TX29/2413Z TN18/2403Z 
     PROB30 
     TEMPO 2401/2405 5000 BR FEW012 
     BECMG 2408/2410 16012KT 9999 SCT020 
     BECMG 2418/2420 24008KT 
     BECMG 2503/2505 15010KT
       
FQNP 232300Z 04006KT 5000 BR FEW020 21/21 Q1015
TAF FQNP 232200Z 2400/2500 23008KT 9999 FEW020 TX29/2413Z TN20/2403Z 
     PROB30 
     TEMPO 2401/2406 5000 BR FEW012 
     BECMG 2408/2410 12010KT BKN020 
     BECMG 2418/2420 23008KT SCT025
       
FQPB 232300Z 05003KT 9999 FEW020 25/23 Q1014
TAF FQPB 232200Z 2400/2500 10010KT 9999 FEW020 TX31/2413Z TN22/2403Z 
     BECMG 2410/2412 12012KT SCT025 
     BECMG 2418/2420 09008KT FEW020
       
FQQL 232300Z 25004KT 9999 BKN018 21/19 Q1014
TAF FQQL 232200Z 2400/2500 28008KT 9999 FEW020 TX31/2413Z TN22/2403Z 
     PROB30 
     TEMPO 2401/2406 5000 BR FEW010 
     BECMG 2408/2410 16012KT BKN020 
     BECMG 2418/2420 26008KT FEW020
       
FQTT 232200Z 13007KT CAVOK 23/18 Q1015
TAF FQTT 232200Z 2400/2500 09006KT 9999 FEW020 TX34/2413Z TN20/2403Z 
     BECMG 2410/2412 12010KT SCT020 
     BECMG 2418/2420 23008KT FEW020
       
FQVL 231900Z 25005KT CAVOK 21/18 Q1015
TAF FQVL 232200Z 2400/2500 26008KT 9999 FEW020 TX24/2413Z TN19/2403Z 
     BECMG 2410/2412 16012KT 
     BECMG 2419/2421 09008KT